sensor_id;sensor_type;location;lat;lon;timestamp;P1;durP1;ratioP1;P2;durP2;ratioP2
80163;SDS011;70071;55.130;61.268;2023-09-19T00:02:17;2.45;;;1.73;;
80163;SDS011;70071;55.130;61.268;2023-09-19T00:04:43;3.95;;;1.38;;
80163;SDS011;70071;55.130;61.268;2023-09-19T00:07:10;3.15;;;1.55;;
80163;SDS011;70071;55.130;61.268;2023-09-19T00:09:35;3.50;;;1.70;;
80163;SDS011;70071;55.130;61.268;2023-09-19T00:12:07;3.45;;;1.60;;
80163;SDS011;70071;55.130;61.268;2023-09-19T00:14:34;2.33;;;1.35;;
80163;SDS011;70071;55.130;61.268;2023-09-19T00:19:34;2.28;;;1.33;;
80163;SDS011;70071;55.130;61.268;2023-09-19T00:22:01;2.28;;;1.50;;
80163;SDS011;70071;55.130;61.268;2023-09-19T00:24:28;2.78;;;1.38;;
80163;SDS011;70071;55.130;61.268;2023-09-19T00:26:54;8.13;;;1.95;;
80163;SDS011;70071;55.130;61.268;2023-09-19T00:29:21;2.40;;;1.50;;
80163;SDS011;70071;55.130;61.268;2023-09-19T00:31:48;4.97;;;1.70;;
80163;SDS011;70071;55.130;61.268;2023-09-19T00:34:15;4.00;;;1.42;;
80163;SDS011;70071;55.130;61.268;2023-09-19T00:36:42;2.20;;;1.45;;
80163;SDS011;70071;55.130;61.268;2023-09-19T00:39:08;3.08;;;1.40;;
80163;SDS011;70071;55.130;61.268;2023-09-19T00:41:35;3.83;;;1.75;;
80163;SDS011;70071;55.130;61.268;2023-09-19T00:44:02;3.83;;;1.42;;
80163;SDS011;70071;55.130;61.268;2023-09-19T00:46:30;2.42;;;1.20;;
80163;SDS011;70071;55.130;61.268;2023-09-19T01:00:06;3.75;;;1.75;;
80163;SDS011;70071;55.130;61.268;2023-09-19T01:02:35;3.47;;;1.45;;
80163;SDS011;70071;55.130;61.268;2023-09-19T01:05:02;6.68;;;1.90;;
80163;SDS011;70071;55.130;61.268;2023-09-19T01:07:32;4.97;;;1.90;;
80163;SDS011;70071;55.130;61.268;2023-09-19T01:10:04;6.32;;;1.98;;
80163;SDS011;70071;55.130;61.268;2023-09-19T01:12:43;4.28;;;1.65;;
80163;SDS011;70071;55.130;61.268;2023-09-19T01:15:21;3.00;;;1.67;;
80163;SDS011;70071;55.130;61.268;2023-09-19T01:32:09;3.78;;;1.40;;
80163;SDS011;70071;55.130;61.268;2023-09-19T01:37:14;2.85;;;1.70;;
80163;SDS011;70071;55.130;61.268;2023-09-19T01:39:49;3.00;;;1.60;;
80163;SDS011;70071;55.130;61.268;2023-09-19T01:42:50;3.75;;;1.27;;
80163;SDS011;70071;55.130;61.268;2023-09-19T01:45:43;4.30;;;2.13;;
80163;SDS011;70071;55.130;61.268;2023-09-19T01:51:24;4.97;;;1.70;;
80163;SDS011;70071;55.130;61.268;2023-09-19T01:54:12;3.70;;;1.85;;
80163;SDS011;70071;55.130;61.268;2023-09-19T01:56:57;4.78;;;1.88;;
80163;SDS011;70071;55.130;61.268;2023-09-19T01:59:35;3.90;;;2.17;;
80163;SDS011;70071;55.130;61.268;2023-09-19T02:02:06;3.70;;;1.92;;
80163;SDS011;70071;55.130;61.268;2023-09-19T02:04:34;2.58;;;1.42;;
80163;SDS011;70071;55.130;61.268;2023-09-19T02:07:00;3.92;;;1.98;;
80163;SDS011;70071;55.130;61.268;2023-09-19T02:09:28;5.78;;;1.90;;
80163;SDS011;70071;55.130;61.268;2023-09-19T02:11:53;3.40;;;2.08;;
80163;SDS011;70071;55.130;61.268;2023-09-19T02:14:21;2.95;;;1.83;;
80163;SDS011;70071;55.130;61.268;2023-09-19T02:19:15;3.42;;;1.77;;
80163;SDS011;70071;55.130;61.268;2023-09-19T02:21:41;3.25;;;1.50;;
80163;SDS011;70071;55.130;61.268;2023-09-19T02:24:08;3.65;;;2.65;;
80163;SDS011;70071;55.130;61.268;2023-09-19T02:26:34;3.88;;;1.80;;
80163;SDS011;70071;55.130;61.268;2023-09-19T02:29:02;4.43;;;1.60;;
80163;SDS011;70071;55.130;61.268;2023-09-19T02:31:30;4.75;;;1.85;;
80163;SDS011;70071;55.130;61.268;2023-09-19T02:33:56;3.70;;;1.90;;
80163;SDS011;70071;55.130;61.268;2023-09-19T02:36:22;2.95;;;1.88;;
80163;SDS011;70071;55.130;61.268;2023-09-19T02:38:49;3.42;;;1.77;;
80163;SDS011;70071;55.130;61.268;2023-09-19T02:43:40;2.55;;;1.90;;
80163;SDS011;70071;55.130;61.268;2023-09-19T02:46:09;3.47;;;1.80;;
80163;SDS011;70071;55.130;61.268;2023-09-19T02:48:36;3.15;;;1.77;;
80163;SDS011;70071;55.130;61.268;2023-09-19T02:51:02;7.78;;;1.80;;
80163;SDS011;70071;55.130;61.268;2023-09-19T02:53:28;5.28;;;2.20;;
80163;SDS011;70071;55.130;61.268;2023-09-19T02:55:57;4.68;;;1.90;;
80163;SDS011;70071;55.130;61.268;2023-09-19T02:58:24;3.65;;;1.90;;
80163;SDS011;70071;55.130;61.268;2023-09-19T03:00:50;2.50;;;1.77;;
80163;SDS011;70071;55.130;61.268;2023-09-19T03:05:43;3.92;;;2.45;;
80163;SDS011;70071;55.130;61.268;2023-09-19T03:08:13;2.78;;;1.70;;
80163;SDS011;70071;55.130;61.268;2023-09-19T03:10:45;5.88;;;2.30;;
80163;SDS011;70071;55.130;61.268;2023-09-19T03:13:13;3.55;;;2.03;;
80163;SDS011;70071;55.130;61.268;2023-09-19T03:15:43;4.00;;;2.00;;
80163;SDS011;70071;55.130;61.268;2023-09-19T03:18:11;3.60;;;1.75;;
80163;SDS011;70071;55.130;61.268;2023-09-19T03:20:38;3.85;;;2.22;;
80163;SDS011;70071;55.130;61.268;2023-09-19T03:23:04;3.00;;;1.98;;
80163;SDS011;70071;55.130;61.268;2023-09-19T03:25:33;4.95;;;1.92;;
80163;SDS011;70071;55.130;61.268;2023-09-19T03:28:00;4.82;;;2.08;;
80163;SDS011;70071;55.130;61.268;2023-09-19T03:30:26;4.40;;;2.25;;
80163;SDS011;70071;55.130;61.268;2023-09-19T03:32:52;4.35;;;2.03;;
80163;SDS011;70071;55.130;61.268;2023-09-19T03:35:18;4.25;;;2.03;;
80163;SDS011;70071;55.130;61.268;2023-09-19T03:40:10;4.60;;;2.45;;
80163;SDS011;70071;55.130;61.268;2023-09-19T03:42:40;5.18;;;2.00;;
80163;SDS011;70071;55.130;61.268;2023-09-19T03:45:09;3.00;;;1.77;;
80163;SDS011;70071;55.130;61.268;2023-09-19T03:47:40;2.70;;;1.85;;
80163;SDS011;70071;55.130;61.268;2023-09-19T03:50:06;3.78;;;2.15;;
80163;SDS011;70071;55.130;61.268;2023-09-19T03:52:57;4.90;;;2.53;;
80163;SDS011;70071;55.130;61.268;2023-09-19T03:55:23;3.95;;;2.17;;
80163;SDS011;70071;55.130;61.268;2023-09-19T03:57:50;6.30;;;2.05;;
80163;SDS011;70071;55.130;61.268;2023-09-19T04:00:18;3.63;;;2.35;;
80163;SDS011;70071;55.130;61.268;2023-09-19T04:02:51;5.50;;;2.40;;
80163;SDS011;70071;55.130;61.268;2023-09-19T04:05:17;2.88;;;1.92;;
80163;SDS011;70071;55.130;61.268;2023-09-19T04:07:43;4.35;;;2.13;;
80163;SDS011;70071;55.130;61.268;2023-09-19T04:10:10;6.18;;;2.35;;
80163;SDS011;70071;55.130;61.268;2023-09-19T04:12:40;4.65;;;2.10;;
80163;SDS011;70071;55.130;61.268;2023-09-19T04:15:06;4.22;;;2.35;;
80163;SDS011;70071;55.130;61.268;2023-09-19T04:17:33;4.50;;;2.30;;
80163;SDS011;70071;55.130;61.268;2023-09-19T04:19:59;3.97;;;2.05;;
80163;SDS011;70071;55.130;61.268;2023-09-19T04:22:25;3.67;;;2.22;;
80163;SDS011;70071;55.130;61.268;2023-09-19T04:24:51;6.15;;;2.40;;
80163;SDS011;70071;55.130;61.268;2023-09-19T04:27:17;4.50;;;2.30;;
80163;SDS011;70071;55.130;61.268;2023-09-19T04:29:44;4.15;;;2.15;;
80163;SDS011;70071;55.130;61.268;2023-09-19T04:32:10;4.85;;;2.15;;
80163;SDS011;70071;55.130;61.268;2023-09-19T04:34:36;3.47;;;2.25;;
80163;SDS011;70071;55.130;61.268;2023-09-19T04:37:03;3.00;;;1.90;;
80163;SDS011;70071;55.130;61.268;2023-09-19T04:39:29;6.93;;;2.20;;
80163;SDS011;70071;55.130;61.268;2023-09-19T04:41:55;3.22;;;2.10;;
80163;SDS011;70071;55.130;61.268;2023-09-19T04:44:22;5.80;;;2.10;;
80163;SDS011;70071;55.130;61.268;2023-09-19T04:46:48;3.70;;;2.50;;
80163;SDS011;70071;55.130;61.268;2023-09-19T04:49:14;3.58;;;2.30;;
80163;SDS011;70071;55.130;61.268;2023-09-19T04:51:40;3.85;;;2.20;;
80163;SDS011;70071;55.130;61.268;2023-09-19T04:54:06;4.35;;;2.10;;
80163;SDS011;70071;55.130;61.268;2023-09-19T04:56:32;6.03;;;2.17;;
80163;SDS011;70071;55.130;61.268;2023-09-19T04:58:59;5.18;;;2.40;;
80163;SDS011;70071;55.130;61.268;2023-09-19T05:01:26;5.60;;;2.35;;
80163;SDS011;70071;55.130;61.268;2023-09-19T05:06:20;5.07;;;2.30;;
80163;SDS011;70071;55.130;61.268;2023-09-19T05:08:50;4.78;;;2.97;;
80163;SDS011;70071;55.130;61.268;2023-09-19T05:11:19;6.93;;;2.13;;
80163;SDS011;70071;55.130;61.268;2023-09-19T05:13:49;4.85;;;2.85;;
80163;SDS011;70071;55.130;61.268;2023-09-19T05:16:16;5.10;;;2.67;;
80163;SDS011;70071;55.130;61.268;2023-09-19T05:18:42;6.97;;;2.88;;
80163;SDS011;70071;55.130;61.268;2023-09-19T05:21:09;4.63;;;2.65;;
80163;SDS011;70071;55.130;61.268;2023-09-19T05:23:35;2.72;;;2.05;;
80163;SDS011;70071;55.130;61.268;2023-09-19T05:26:02;3.08;;;2.50;;
80163;SDS011;70071;55.130;61.268;2023-09-19T05:28:31;5.03;;;2.80;;
80163;SDS011;70071;55.130;61.268;2023-09-19T05:31:02;4.18;;;2.78;;
80163;SDS011;70071;55.130;61.268;2023-09-19T05:33:28;4.10;;;2.72;;
80163;SDS011;70071;55.130;61.268;2023-09-19T05:35:56;6.65;;;2.72;;
80163;SDS011;70071;55.130;61.268;2023-09-19T05:38:22;4.68;;;3.03;;
80163;SDS011;70071;55.130;61.268;2023-09-19T05:40:49;3.95;;;2.90;;
80163;SDS011;70071;55.130;61.268;2023-09-19T05:43:15;4.43;;;2.60;;
80163;SDS011;70071;55.130;61.268;2023-09-19T05:45:41;4.15;;;2.78;;
80163;SDS011;70071;55.130;61.268;2023-09-19T05:48:08;4.75;;;2.63;;
80163;SDS011;70071;55.130;61.268;2023-09-19T05:50:40;7.00;;;3.00;;
80163;SDS011;70071;55.130;61.268;2023-09-19T05:55:32;4.53;;;2.80;;
80163;SDS011;70071;55.130;61.268;2023-09-19T05:57:58;6.07;;;3.13;;
80163;SDS011;70071;55.130;61.268;2023-09-19T06:00:24;5.35;;;3.28;;
80163;SDS011;70071;55.130;61.268;2023-09-19T06:02:53;7.28;;;3.40;;
80163;SDS011;70071;55.130;61.268;2023-09-19T06:05:20;7.47;;;3.33;;
80163;SDS011;70071;55.130;61.268;2023-09-19T06:07:47;5.60;;;2.70;;
80163;SDS011;70071;55.130;61.268;2023-09-19T06:10:13;6.35;;;3.13;;
80163;SDS011;70071;55.130;61.268;2023-09-19T06:12:43;4.93;;;3.63;;
80163;SDS011;70071;55.130;61.268;2023-09-19T06:15:10;7.40;;;3.20;;
80163;SDS011;70071;55.130;61.268;2023-09-19T06:17:48;11.32;;;3.30;;
80163;SDS011;70071;55.130;61.268;2023-09-19T06:20:16;5.63;;;3.35;;
80163;SDS011;70071;55.130;61.268;2023-09-19T06:22:43;6.57;;;3.47;;
80163;SDS011;70071;55.130;61.268;2023-09-19T06:25:10;5.05;;;3.45;;
80163;SDS011;70071;55.130;61.268;2023-09-19T06:27:38;5.25;;;3.00;;
80163;SDS011;70071;55.130;61.268;2023-09-19T06:30:08;6.47;;;4.47;;
80163;SDS011;70071;55.130;61.268;2023-09-19T06:32:35;5.82;;;4.25;;
80163;SDS011;70071;55.130;61.268;2023-09-19T06:35:01;7.55;;;4.65;;
80163;SDS011;70071;55.130;61.268;2023-09-19T06:37:30;6.78;;;3.97;;
80163;SDS011;70071;55.130;61.268;2023-09-19T06:39:55;6.95;;;4.00;;
80163;SDS011;70071;55.130;61.268;2023-09-19T06:42:22;4.75;;;3.38;;
80163;SDS011;70071;55.130;61.268;2023-09-19T06:44:49;6.05;;;3.95;;
80163;SDS011;70071;55.130;61.268;2023-09-19T06:47:15;5.53;;;3.42;;
80163;SDS011;70071;55.130;61.268;2023-09-19T06:49:41;8.25;;;4.53;;
80163;SDS011;70071;55.130;61.268;2023-09-19T06:52:10;6.97;;;4.10;;
80163;SDS011;70071;55.130;61.268;2023-09-19T06:57:02;4.28;;;3.55;;
80163;SDS011;70071;55.130;61.268;2023-09-19T06:59:29;5.68;;;3.72;;
80163;SDS011;70071;55.130;61.268;2023-09-19T07:01:55;7.22;;;3.58;;
80163;SDS011;70071;55.130;61.268;2023-09-19T07:06:49;6.55;;;4.82;;
80163;SDS011;70071;55.130;61.268;2023-09-19T07:09:18;10.38;;;6.35;;
80163;SDS011;70071;55.130;61.268;2023-09-19T07:11:45;9.27;;;6.60;;
80163;SDS011;70071;55.130;61.268;2023-09-19T07:14:13;11.98;;;7.55;;
80163;SDS011;70071;55.130;61.268;2023-09-19T07:16:39;9.43;;;5.22;;
80163;SDS011;70071;55.130;61.268;2023-09-19T07:19:08;7.07;;;4.38;;
80163;SDS011;70071;55.130;61.268;2023-09-19T07:21:34;7.82;;;4.53;;
80163;SDS011;70071;55.130;61.268;2023-09-19T07:24:00;11.38;;;7.45;;
80163;SDS011;70071;55.130;61.268;2023-09-19T07:26:28;7.03;;;4.72;;
80163;SDS011;70071;55.130;61.268;2023-09-19T07:28:54;6.72;;;4.18;;
80163;SDS011;70071;55.130;61.268;2023-09-19T07:31:20;9.57;;;5.53;;
80163;SDS011;70071;55.130;61.268;2023-09-19T07:33:48;8.73;;;5.20;;
80163;SDS011;70071;55.130;61.268;2023-09-19T07:36:14;7.88;;;5.40;;
80163;SDS011;70071;55.130;61.268;2023-09-19T07:38:41;7.78;;;5.05;;
80163;SDS011;70071;55.130;61.268;2023-09-19T07:41:08;8.65;;;4.82;;
80163;SDS011;70071;55.130;61.268;2023-09-19T07:43:35;8.27;;;5.10;;
80163;SDS011;70071;55.130;61.268;2023-09-19T07:46:04;7.95;;;4.68;;
80163;SDS011;70071;55.130;61.268;2023-09-19T07:48:33;7.60;;;4.97;;
80163;SDS011;70071;55.130;61.268;2023-09-19T07:51:03;6.28;;;4.47;;
80163;SDS011;70071;55.130;61.268;2023-09-19T07:53:33;7.95;;;4.20;;
80163;SDS011;70071;55.130;61.268;2023-09-19T07:56:06;6.30;;;4.18;;
80163;SDS011;70071;55.130;61.268;2023-09-19T07:58:39;8.18;;;4.20;;
80163;SDS011;70071;55.130;61.268;2023-09-19T08:01:09;7.00;;;4.18;;
80163;SDS011;70071;55.130;61.268;2023-09-19T08:03:36;7.55;;;3.92;;
80163;SDS011;70071;55.130;61.268;2023-09-19T08:06:06;8.30;;;4.70;;
80163;SDS011;70071;55.130;61.268;2023-09-19T08:08:33;8.48;;;4.50;;
80163;SDS011;70071;55.130;61.268;2023-09-19T08:11:04;9.52;;;4.95;;
80163;SDS011;70071;55.130;61.268;2023-09-19T08:13:41;7.97;;;5.05;;
80163;SDS011;70071;55.130;61.268;2023-09-19T08:16:11;5.80;;;4.05;;
80163;SDS011;70071;55.130;61.268;2023-09-19T08:21:06;10.70;;;6.68;;
80163;SDS011;70071;55.130;61.268;2023-09-19T08:23:37;9.18;;;5.50;;
80163;SDS011;70071;55.130;61.268;2023-09-19T08:26:06;7.55;;;4.35;;
80163;SDS011;70071;55.130;61.268;2023-09-19T08:28:34;10.50;;;4.82;;
80163;SDS011;70071;55.130;61.268;2023-09-19T08:31:01;10.45;;;5.43;;
80163;SDS011;70071;55.130;61.268;2023-09-19T08:33:34;8.98;;;4.35;;
80163;SDS011;70071;55.130;61.268;2023-09-19T08:36:04;6.28;;;3.90;;
80163;SDS011;70071;55.130;61.268;2023-09-19T08:38:34;4.40;;;3.80;;
80163;SDS011;70071;55.130;61.268;2023-09-19T08:41:05;4.82;;;3.58;;
80163;SDS011;70071;55.130;61.268;2023-09-19T08:43:32;6.88;;;4.10;;
80163;SDS011;70071;55.130;61.268;2023-09-19T08:46:07;4.90;;;3.78;;
80163;SDS011;70071;55.130;61.268;2023-09-19T08:48:44;6.78;;;3.72;;
80163;SDS011;70071;55.130;61.268;2023-09-19T08:51:27;7.50;;;4.47;;
80163;SDS011;70071;55.130;61.268;2023-09-19T08:54:08;5.72;;;4.30;;
80163;SDS011;70071;55.130;61.268;2023-09-19T08:56:39;5.18;;;4.00;;
80163;SDS011;70071;55.130;61.268;2023-09-19T08:59:07;5.50;;;3.78;;
80163;SDS011;70071;55.130;61.268;2023-09-19T09:01:34;5.47;;;4.47;;
80163;SDS011;70071;55.130;61.268;2023-09-19T09:04:01;6.97;;;3.85;;
80163;SDS011;70071;55.130;61.268;2023-09-19T09:06:29;7.55;;;3.95;;
80163;SDS011;70071;55.130;61.268;2023-09-19T09:08:55;5.57;;;3.85;;
80163;SDS011;70071;55.130;61.268;2023-09-19T09:11:21;7.82;;;4.45;;
80163;SDS011;70071;55.130;61.268;2023-09-19T09:13:50;7.03;;;4.45;;
80163;SDS011;70071;55.130;61.268;2023-09-19T09:18:44;5.57;;;4.22;;
80163;SDS011;70071;55.130;61.268;2023-09-19T09:21:11;6.32;;;4.40;;
80163;SDS011;70071;55.130;61.268;2023-09-19T09:23:39;5.07;;;3.83;;
80163;SDS011;70071;55.130;61.268;2023-09-19T09:26:04;7.97;;;4.47;;
80163;SDS011;70071;55.130;61.268;2023-09-19T09:28:34;7.47;;;5.15;;
80163;SDS011;70071;55.130;61.268;2023-09-19T09:31:21;7.75;;;4.13;;
80163;SDS011;70071;55.130;61.268;2023-09-19T09:33:57;6.72;;;4.35;;
80163;SDS011;70071;55.130;61.268;2023-09-19T09:36:36;6.88;;;4.13;;
80163;SDS011;70071;55.130;61.268;2023-09-19T09:39:07;7.72;;;5.40;;
80163;SDS011;70071;55.130;61.268;2023-09-19T09:41:50;9.65;;;5.43;;
80163;SDS011;70071;55.130;61.268;2023-09-19T09:44:17;10.15;;;4.85;;
80163;SDS011;70071;55.130;61.268;2023-09-19T09:46:46;10.55;;;5.53;;
80163;SDS011;70071;55.130;61.268;2023-09-19T09:49:23;6.50;;;4.90;;
80163;SDS011;70071;55.130;61.268;2023-09-19T09:55:00;6.78;;;4.93;;
80163;SDS011;70071;55.130;61.268;2023-09-19T09:57:34;8.05;;;4.40;;
80163;SDS011;70071;55.130;61.268;2023-09-19T10:00:00;8.57;;;4.68;;
80163;SDS011;70071;55.130;61.268;2023-09-19T10:02:36;6.47;;;3.65;;
80163;SDS011;70071;55.130;61.268;2023-09-19T10:07:47;7.63;;;4.30;;
80163;SDS011;70071;55.130;61.268;2023-09-19T10:10:34;5.05;;;4.55;;
80163;SDS011;70071;55.130;61.268;2023-09-19T10:13:09;7.55;;;4.18;;
80163;SDS011;70071;55.130;61.268;2023-09-19T10:15:56;8.70;;;4.93;;
80163;SDS011;70071;55.130;61.268;2023-09-19T10:18:24;10.13;;;4.07;;
80163;SDS011;70071;55.130;61.268;2023-09-19T10:20:53;4.93;;;3.38;;
80163;SDS011;70071;55.130;61.268;2023-09-19T10:23:20;7.75;;;3.70;;
80163;SDS011;70071;55.130;61.268;2023-09-19T10:25:51;5.22;;;3.10;;
80163;SDS011;70071;55.130;61.268;2023-09-19T10:28:18;5.53;;;3.30;;
80163;SDS011;70071;55.130;61.268;2023-09-19T10:30:48;5.80;;;3.45;;
80163;SDS011;70071;55.130;61.268;2023-09-19T10:33:20;6.80;;;3.40;;
80163;SDS011;70071;55.130;61.268;2023-09-19T10:35:48;5.53;;;3.80;;
80163;SDS011;70071;55.130;61.268;2023-09-19T10:38:22;6.88;;;3.17;;
80163;SDS011;70071;55.130;61.268;2023-09-19T10:40:52;6.13;;;3.72;;
80163;SDS011;70071;55.130;61.268;2023-09-19T10:43:20;6.15;;;2.85;;
80163;SDS011;70071;55.130;61.268;2023-09-19T10:45:47;4.40;;;2.90;;
80163;SDS011;70071;55.130;61.268;2023-09-19T10:48:16;4.55;;;3.10;;
80163;SDS011;70071;55.130;61.268;2023-09-19T10:50:48;9.27;;;3.53;;
80163;SDS011;70071;55.130;61.268;2023-09-19T10:53:25;8.52;;;3.80;;
80163;SDS011;70071;55.130;61.268;2023-09-19T10:55:57;6.93;;;4.43;;
80163;SDS011;70071;55.130;61.268;2023-09-19T10:58:26;7.57;;;4.18;;
80163;SDS011;70071;55.130;61.268;2023-09-19T11:01:00;7.07;;;5.22;;
80163;SDS011;70071;55.130;61.268;2023-09-19T11:03:41;10.63;;;5.18;;
80163;SDS011;70071;55.130;61.268;2023-09-19T11:06:14;9.73;;;5.00;;
80163;SDS011;70071;55.130;61.268;2023-09-19T11:08:59;10.13;;;5.40;;
80163;SDS011;70071;55.130;61.268;2023-09-19T11:11:46;9.98;;;5.80;;
80163;SDS011;70071;55.130;61.268;2023-09-19T11:30:35;6.57;;;4.47;;
80163;SDS011;70071;55.130;61.268;2023-09-19T11:33:16;8.85;;;5.15;;
80163;SDS011;70071;55.130;61.268;2023-09-19T11:46:17;8.20;;;6.45;;
80163;SDS011;70071;55.130;61.268;2023-09-19T11:48:48;6.88;;;4.88;;
80163;SDS011;70071;55.130;61.268;2023-09-19T11:51:22;7.72;;;4.93;;
80163;SDS011;70071;55.130;61.268;2023-09-19T11:53:53;7.40;;;4.88;;
80163;SDS011;70071;55.130;61.268;2023-09-19T11:56:29;9.07;;;5.00;;
80163;SDS011;70071;55.130;61.268;2023-09-19T11:58:57;7.20;;;5.07;;
80163;SDS011;70071;55.130;61.268;2023-09-19T12:01:29;9.15;;;5.10;;
80163;SDS011;70071;55.130;61.268;2023-09-19T12:03:59;6.68;;;5.07;;
80163;SDS011;70071;55.130;61.268;2023-09-19T12:06:28;8.55;;;5.35;;
80163;SDS011;70071;55.130;61.268;2023-09-19T12:09:04;10.15;;;6.03;;
80163;SDS011;70071;55.130;61.268;2023-09-19T12:11:40;12.27;;;6.53;;
80163;SDS011;70071;55.130;61.268;2023-09-19T12:14:09;11.70;;;5.43;;
80163;SDS011;70071;55.130;61.268;2023-09-19T12:19:17;8.98;;;5.32;;
80163;SDS011;70071;55.130;61.268;2023-09-19T12:21:54;11.30;;;5.88;;
80163;SDS011;70071;55.130;61.268;2023-09-19T12:24:24;11.10;;;5.43;;
80163;SDS011;70071;55.130;61.268;2023-09-19T12:26:51;11.55;;;6.25;;
80163;SDS011;70071;55.130;61.268;2023-09-19T12:29:21;10.90;;;6.00;;
80163;SDS011;70071;55.130;61.268;2023-09-19T12:31:51;10.07;;;5.95;;
80163;SDS011;70071;55.130;61.268;2023-09-19T12:34:24;9.90;;;6.55;;
80163;SDS011;70071;55.130;61.268;2023-09-19T12:37:04;10.85;;;6.75;;
80163;SDS011;70071;55.130;61.268;2023-09-19T12:39:47;10.55;;;7.00;;
80163;SDS011;70071;55.130;61.268;2023-09-19T12:42:26;11.38;;;6.43;;
80163;SDS011;70071;55.130;61.268;2023-09-19T12:44:57;10.70;;;7.28;;
80163;SDS011;70071;55.130;61.268;2023-09-19T12:47:26;10.95;;;5.88;;
80163;SDS011;70071;55.130;61.268;2023-09-19T12:50:07;13.68;;;6.93;;
80163;SDS011;70071;55.130;61.268;2023-09-19T12:52:44;10.98;;;7.47;;
80163;SDS011;70071;55.130;61.268;2023-09-19T12:55:24;11.93;;;7.88;;
80163;SDS011;70071;55.130;61.268;2023-09-19T13:00:33;12.77;;;7.55;;
80163;SDS011;70071;55.130;61.268;2023-09-19T13:06:04;13.35;;;8.55;;
80163;SDS011;70071;55.130;61.268;2023-09-19T13:08:31;11.32;;;7.45;;
80163;SDS011;70071;55.130;61.268;2023-09-19T13:13:32;12.68;;;8.07;;
80163;SDS011;70071;55.130;61.268;2023-09-19T13:16:01;12.68;;;7.72;;
80163;SDS011;70071;55.130;61.268;2023-09-19T13:18:28;14.43;;;9.07;;
80163;SDS011;70071;55.130;61.268;2023-09-19T13:21:11;14.90;;;8.60;;
80163;SDS011;70071;55.130;61.268;2023-09-19T13:23:41;15.27;;;9.20;;
80163;SDS011;70071;55.130;61.268;2023-09-19T13:26:09;16.27;;;7.32;;
80163;SDS011;70071;55.130;61.268;2023-09-19T13:28:38;20.52;;;8.93;;
80163;SDS011;70071;55.130;61.268;2023-09-19T13:31:04;15.02;;;7.25;;
80163;SDS011;70071;55.130;61.268;2023-09-19T13:33:31;15.60;;;6.82;;
80163;SDS011;70071;55.130;61.268;2023-09-19T13:35:57;14.00;;;6.93;;
80163;SDS011;70071;55.130;61.268;2023-09-19T13:40:49;9.52;;;5.50;;
80163;SDS011;70071;55.130;61.268;2023-09-19T13:43:18;12.98;;;5.63;;
80163;SDS011;70071;55.130;61.268;2023-09-19T13:45:44;12.70;;;5.25;;
80163;SDS011;70071;55.130;61.268;2023-09-19T13:48:10;8.82;;;4.10;;
80163;SDS011;70071;55.130;61.268;2023-09-19T13:50:41;5.35;;;3.92;;
80163;SDS011;70071;55.130;61.268;2023-09-19T13:53:10;6.78;;;3.55;;
80163;SDS011;70071;55.130;61.268;2023-09-19T13:55:37;8.60;;;3.83;;
80163;SDS011;70071;55.130;61.268;2023-09-19T14:00:31;5.50;;;3.30;;
80163;SDS011;70071;55.130;61.268;2023-09-19T14:03:00;8.98;;;3.42;;
80163;SDS011;70071;55.130;61.268;2023-09-19T14:05:26;7.82;;;3.70;;
80163;SDS011;70071;55.130;61.268;2023-09-19T14:07:53;6.82;;;3.50;;
80163;SDS011;70071;55.130;61.268;2023-09-19T14:10:24;3.85;;;3.13;;
80163;SDS011;70071;55.130;61.268;2023-09-19T14:12:55;6.65;;;3.63;;
80163;SDS011;70071;55.130;61.268;2023-09-19T14:15:23;11.10;;;5.38;;
80163;SDS011;70071;55.130;61.268;2023-09-19T14:17:57;11.82;;;7.20;;
80163;SDS011;70071;55.130;61.268;2023-09-19T14:20:25;6.97;;;4.70;;
80163;SDS011;70071;55.130;61.268;2023-09-19T14:22:54;8.20;;;5.53;;
80163;SDS011;70071;55.130;61.268;2023-09-19T14:25:20;9.77;;;5.20;;
80163;SDS011;70071;55.130;61.268;2023-09-19T14:30:13;8.65;;;5.60;;
80163;SDS011;70071;55.130;61.268;2023-09-19T14:35:05;8.05;;;4.40;;
80163;SDS011;70071;55.130;61.268;2023-09-19T14:37:35;10.70;;;5.45;;
80163;SDS011;70071;55.130;61.268;2023-09-19T14:40:03;8.77;;;5.45;;
80163;SDS011;70071;55.130;61.268;2023-09-19T14:42:37;8.00;;;5.22;;
80163;SDS011;70071;55.130;61.268;2023-09-19T14:45:05;8.63;;;4.65;;
80163;SDS011;70071;55.130;61.268;2023-09-19T14:47:36;6.90;;;4.57;;
80163;SDS011;70071;55.130;61.268;2023-09-19T14:50:03;4.45;;;3.53;;
80163;SDS011;70071;55.130;61.268;2023-09-19T14:52:32;7.20;;;3.53;;
80163;SDS011;70071;55.130;61.268;2023-09-19T14:55:00;4.97;;;3.65;;
80163;SDS011;70071;55.130;61.268;2023-09-19T14:57:29;6.97;;;3.63;;
80163;SDS011;70071;55.130;61.268;2023-09-19T14:59:55;7.80;;;3.83;;
80163;SDS011;70071;55.130;61.268;2023-09-19T15:02:21;5.05;;;2.70;;
80163;SDS011;70071;55.130;61.268;2023-09-19T15:04:46;6.97;;;4.00;;
80163;SDS011;70071;55.130;61.268;2023-09-19T15:07:13;7.15;;;3.65;;
80163;SDS011;70071;55.130;61.268;2023-09-19T15:09:43;5.47;;;3.30;;
80163;SDS011;70071;55.130;61.268;2023-09-19T15:12:09;6.75;;;3.28;;
80163;SDS011;70071;55.130;61.268;2023-09-19T15:14:39;6.57;;;3.50;;
80163;SDS011;70071;55.130;61.268;2023-09-19T15:17:07;6.63;;;3.70;;
80163;SDS011;70071;55.130;61.268;2023-09-19T15:19:34;7.38;;;3.88;;
80163;SDS011;70071;55.130;61.268;2023-09-19T15:24:26;5.70;;;3.90;;
80163;SDS011;70071;55.130;61.268;2023-09-19T15:26:52;7.32;;;4.15;;
80163;SDS011;70071;55.130;61.268;2023-09-19T15:29:21;5.28;;;3.55;;
80163;SDS011;70071;55.130;61.268;2023-09-19T15:31:47;6.30;;;3.35;;
80163;SDS011;70071;55.130;61.268;2023-09-19T15:34:13;4.85;;;3.20;;
80163;SDS011;70071;55.130;61.268;2023-09-19T15:36:41;7.80;;;3.20;;
80163;SDS011;70071;55.130;61.268;2023-09-19T15:39:07;5.53;;;3.10;;
80163;SDS011;70071;55.130;61.268;2023-09-19T15:41:37;3.47;;;2.63;;
80163;SDS011;70071;55.130;61.268;2023-09-19T15:44:04;7.03;;;2.70;;
80163;SDS011;70071;55.130;61.268;2023-09-19T15:46:36;5.68;;;3.47;;
80163;SDS011;70071;55.130;61.268;2023-09-19T15:49:03;5.55;;;2.75;;
80163;SDS011;70071;55.130;61.268;2023-09-19T15:51:29;4.00;;;2.28;;
80163;SDS011;70071;55.130;61.268;2023-09-19T15:53:55;4.75;;;2.40;;
80163;SDS011;70071;55.130;61.268;2023-09-19T15:56:23;3.55;;;2.10;;
80163;SDS011;70071;55.130;61.268;2023-09-19T15:58:50;3.75;;;2.20;;
80163;SDS011;70071;55.130;61.268;2023-09-19T16:01:17;3.00;;;2.30;;
80163;SDS011;70071;55.130;61.268;2023-09-19T16:06:18;4.53;;;2.25;;
80163;SDS011;70071;55.130;61.268;2023-09-19T16:08:47;3.08;;;1.83;;
80163;SDS011;70071;55.130;61.268;2023-09-19T16:11:14;4.75;;;2.13;;
80163;SDS011;70071;55.130;61.268;2023-09-19T16:13:42;4.55;;;1.90;;
80163;SDS011;70071;55.130;61.268;2023-09-19T16:16:09;3.10;;;1.70;;
80163;SDS011;70071;55.130;61.268;2023-09-19T16:18:38;3.70;;;2.25;;
80163;SDS011;70071;55.130;61.268;2023-09-19T16:21:05;3.75;;;2.40;;
80163;SDS011;70071;55.130;61.268;2023-09-19T16:23:34;4.13;;;1.95;;
80163;SDS011;70071;55.130;61.268;2023-09-19T16:26:04;3.38;;;2.00;;
80163;SDS011;70071;55.130;61.268;2023-09-19T16:28:31;3.08;;;1.90;;
80163;SDS011;70071;55.130;61.268;2023-09-19T16:31:00;2.80;;;1.70;;
80163;SDS011;70071;55.130;61.268;2023-09-19T16:33:31;3.88;;;2.20;;
80163;SDS011;70071;55.130;61.268;2023-09-19T16:35:58;4.35;;;1.77;;
80163;SDS011;70071;55.130;61.268;2023-09-19T16:38:27;3.53;;;1.77;;
80163;SDS011;70071;55.130;61.268;2023-09-19T16:43:24;3.95;;;1.85;;
80163;SDS011;70071;55.130;61.268;2023-09-19T16:48:20;4.03;;;2.03;;